sensor_id;sensor_type;location;lat;lon;timestamp;temperature;humidity
59973;DHT22;55298;-36.624;-64.282;2022-11-20T00:01:33;27.00;67.50
59973;DHT22;55298;-36.624;-64.282;2022-11-20T00:04:01;26.90;67.90
59973;DHT22;55298;-36.624;-64.282;2022-11-20T00:06:32;26.90;67.90
59973;DHT22;55298;-36.624;-64.282;2022-11-20T00:09:00;26.80;68.00
59973;DHT22;55298;-36.624;-64.282;2022-11-20T00:11:30;26.90;69.40
59973;DHT22;55298;-36.624;-64.282;2022-11-20T00:14:00;26.90;70.50
59973;DHT22;55298;-36.624;-64.282;2022-11-20T00:16:32;26.70;71.10
59973;DHT22;55298;-36.624;-64.282;2022-11-20T00:19:03;26.70;72.00
59973;DHT22;55298;-36.624;-64.282;2022-11-20T00:21:32;26.70;71.70
59973;DHT22;55298;-36.624;-64.282;2022-11-20T00:24:01;26.60;72.20
59973;DHT22;55298;-36.624;-64.282;2022-11-20T00:26:30;26.60;72.90
59973;DHT22;55298;-36.624;-64.282;2022-11-20T00:29:00;26.60;74.00
59973;DHT22;55298;-36.624;-64.282;2022-11-20T00:31:29;26.50;74.50
59973;DHT22;55298;-36.624;-64.282;2022-11-20T00:33:59;26.50;76.10
59973;DHT22;55298;-36.624;-64.282;2022-11-20T00:36:28;26.50;75.90
59973;DHT22;55298;-36.624;-64.282;2022-11-20T00:38:57;26.40;76.90
59973;DHT22;55298;-36.624;-64.282;2022-11-20T00:41:28;26.40;78.90
59973;DHT22;55298;-36.624;-64.282;2022-11-20T00:43:56;26.30;80.20
59973;DHT22;55298;-36.624;-64.282;2022-11-20T00:46:27;26.20;83.00
59973;DHT22;55298;-36.624;-64.282;2022-11-20T00:48:57;26.20;84.60
59973;DHT22;55298;-36.624;-64.282;2022-11-20T00:51:26;26.10;85.70
59973;DHT22;55298;-36.624;-64.282;2022-11-20T00:53:56;26.00;87.80
59973;DHT22;55298;-36.624;-64.282;2022-11-20T00:56:24;26.00;87.70
59973;DHT22;55298;-36.624;-64.282;2022-11-20T00:58:52;25.90;89.40
59973;DHT22;55298;-36.624;-64.282;2022-11-20T01:01:22;25.90;90.50
59973;DHT22;55298;-36.624;-64.282;2022-11-20T01:03:52;25.90;91.50
59973;DHT22;55298;-36.624;-64.282;2022-11-20T01:06:28;25.80;91.20
59973;DHT22;55298;-36.624;-64.282;2022-11-20T01:09:00;25.80;90.80
59973;DHT22;55298;-36.624;-64.282;2022-11-20T01:11:30;25.80;91.10
59973;DHT22;55298;-36.624;-64.282;2022-11-20T01:14:00;25.80;91.50
59973;DHT22;55298;-36.624;-64.282;2022-11-20T01:16:32;25.80;92.60
59973;DHT22;55298;-36.624;-64.282;2022-11-20T01:19:01;25.80;92.90
59973;DHT22;55298;-36.624;-64.282;2022-11-20T01:21:31;25.70;93.00
59973;DHT22;55298;-36.624;-64.282;2022-11-20T01:24:00;25.70;93.00
59973;DHT22;55298;-36.624;-64.282;2022-11-20T01:26:31;25.70;93.90
59973;DHT22;55298;-36.624;-64.282;2022-11-20T01:29:02;25.70;93.20
59973;DHT22;55298;-36.624;-64.282;2022-11-20T01:31:34;25.70;93.20
59973;DHT22;55298;-36.624;-64.282;2022-11-20T01:34:07;25.70;92.50
59973;DHT22;55298;-36.624;-64.282;2022-11-20T01:36:38;25.80;92.30
59973;DHT22;55298;-36.624;-64.282;2022-11-20T01:39:10;25.80;92.80
59973;DHT22;55298;-36.624;-64.282;2022-11-20T01:41:37;25.80;92.50
59973;DHT22;55298;-36.624;-64.282;2022-11-20T01:44:18;25.80;92.10
59973;DHT22;55298;-36.624;-64.282;2022-11-20T01:46:57;25.90;92.20
59973;DHT22;55298;-36.624;-64.282;2022-11-20T01:49:37;25.90;92.40
59973;DHT22;55298;-36.624;-64.282;2022-11-20T01:52:15;25.90;92.30
59973;DHT22;55298;-36.624;-64.282;2022-11-20T01:54:56;25.90;93.00
59973;DHT22;55298;-36.624;-64.282;2022-11-20T01:57:26;25.90;91.70
59973;DHT22;55298;-36.624;-64.282;2022-11-20T02:00:01;26.00;92.40
59973;DHT22;55298;-36.624;-64.282;2022-11-20T02:02:30;25.70;78.30
59973;DHT22;55298;-36.624;-64.282;2022-11-20T02:05:04;25.20;67.60
59973;DHT22;55298;-36.624;-64.282;2022-11-20T02:07:37;24.70;67.70
59973;DHT22;55298;-36.624;-64.282;2022-11-20T02:10:06;24.00;64.30
59973;DHT22;55298;-36.624;-64.282;2022-11-20T02:15:56;22.90;74.70
59973;DHT22;55298;-36.624;-64.282;2022-11-20T02:18:26;22.10;84.20
59973;DHT22;55298;-36.624;-64.282;2022-11-20T02:21:06;21.20;92.30
59973;DHT22;55298;-36.624;-64.282;2022-11-20T02:26:13;19.50;99.90
59973;DHT22;55298;-36.624;-64.282;2022-11-20T02:28:44;18.70;99.90
59973;DHT22;55298;-36.624;-64.282;2022-11-20T02:31:13;18.20;99.90
59973;DHT22;55298;-36.624;-64.282;2022-11-20T02:33:41;17.80;99.90
59973;DHT22;55298;-36.624;-64.282;2022-11-20T02:36:14;17.30;99.90
59973;DHT22;55298;-36.624;-64.282;2022-11-20T02:38:44;17.00;99.90
59973;DHT22;55298;-36.624;-64.282;2022-11-20T02:41:11;16.80;99.90
59973;DHT22;55298;-36.624;-64.282;2022-11-20T02:43:39;16.70;99.90
59973;DHT22;55298;-36.624;-64.282;2022-11-20T02:46:08;16.80;99.90
59973;DHT22;55298;-36.624;-64.282;2022-11-20T02:48:37;16.80;99.90
59973;DHT22;55298;-36.624;-64.282;2022-11-20T02:51:05;16.80;99.90
59973;DHT22;55298;-36.624;-64.282;2022-11-20T02:53:33;16.90;99.90
59973;DHT22;55298;-36.624;-64.282;2022-11-20T02:56:21;16.80;99.90
59973;DHT22;55298;-36.624;-64.282;2022-11-20T02:58:51;16.70;99.90
59973;DHT22;55298;-36.624;-64.282;2022-11-20T03:01:20;16.80;99.90
59973;DHT22;55298;-36.624;-64.282;2022-11-20T03:03:49;16.70;99.90
59973;DHT22;55298;-36.624;-64.282;2022-11-20T03:06:17;16.60;99.90
59973;DHT22;55298;-36.624;-64.282;2022-11-20T03:08:44;16.60;99.90
59973;DHT22;55298;-36.624;-64.282;2022-11-20T03:11:12;16.60;99.90
59973;DHT22;55298;-36.624;-64.282;2022-11-20T03:13:40;16.60;99.90
59973;DHT22;55298;-36.624;-64.282;2022-11-20T03:16:13;16.70;99.90
59973;DHT22;55298;-36.624;-64.282;2022-11-20T03:18:43;16.50;99.90
59973;DHT22;55298;-36.624;-64.282;2022-11-20T03:21:13;16.30;99.90
59973;DHT22;55298;-36.624;-64.282;2022-11-20T03:23:42;16.10;99.90
59973;DHT22;55298;-36.624;-64.282;2022-11-20T03:26:13;16.00;99.90
59973;DHT22;55298;-36.624;-64.282;2022-11-20T03:28:47;16.00;99.90
59973;DHT22;55298;-36.624;-64.282;2022-11-20T03:31:18;15.90;99.90
59973;DHT22;55298;-36.624;-64.282;2022-11-20T03:33:46;16.00;99.90
59973;DHT22;55298;-36.624;-64.282;2022-11-20T03:36:15;16.00;99.90
59973;DHT22;55298;-36.624;-64.282;2022-11-20T03:38:43;15.90;99.90
59973;DHT22;55298;-36.624;-64.282;2022-11-20T03:41:14;15.90;99.90
59973;DHT22;55298;-36.624;-64.282;2022-11-20T03:43:46;15.90;99.90
59973;DHT22;55298;-36.624;-64.282;2022-11-20T03:46:15;16.00;99.90
59973;DHT22;55298;-36.624;-64.282;2022-11-20T03:48:43;16.20;99.90
59973;DHT22;55298;-36.624;-64.282;2022-11-20T03:51:20;16.20;99.90
59973;DHT22;55298;-36.624;-64.282;2022-11-20T03:53:49;16.20;99.90
59973;DHT22;55298;-36.624;-64.282;2022-11-20T03:56:23;16.20;99.90
59973;DHT22;55298;-36.624;-64.282;2022-11-20T03:58:51;16.20;99.90
59973;DHT22;55298;-36.624;-64.282;2022-11-20T04:01:22;16.20;99.90
59973;DHT22;55298;-36.624;-64.282;2022-11-20T04:03:51;16.10;99.90
59973;DHT22;55298;-36.624;-64.282;2022-11-20T04:06:23;16.20;99.90
59973;DHT22;55298;-36.624;-64.282;2022-11-20T04:08:51;16.20;99.90
59973;DHT22;55298;-36.624;-64.282;2022-11-20T04:11:24;16.20;99.90
59973;DHT22;55298;-36.624;-64.282;2022-11-20T04:13:54;16.20;99.90
59973;DHT22;55298;-36.624;-64.282;2022-11-20T04:16:25;16.10;99.90
59973;DHT22;55298;-36.624;-64.282;2022-11-20T04:18:55;16.10;99.90
59973;DHT22;55298;-36.624;-64.282;2022-11-20T04:21:25;16.10;99.90
59973;DHT22;55298;-36.624;-64.282;2022-11-20T04:23:53;16.10;99.90
59973;DHT22;55298;-36.624;-64.282;2022-11-20T04:26:23;16.00;99.90
59973;DHT22;55298;-36.624;-64.282;2022-11-20T04:28:51;16.00;99.90
59973;DHT22;55298;-36.624;-64.282;2022-11-20T04:31:23;16.00;99.90
59973;DHT22;55298;-36.624;-64.282;2022-11-20T04:33:52;16.00;99.90
59973;DHT22;55298;-36.624;-64.282;2022-11-20T04:36:26;15.90;99.90
59973;DHT22;55298;-36.624;-64.282;2022-11-20T04:38:59;15.90;99.90
59973;DHT22;55298;-36.624;-64.282;2022-11-20T04:41:31;16.00;99.90
59973;DHT22;55298;-36.624;-64.282;2022-11-20T04:44:00;16.00;99.90
59973;DHT22;55298;-36.624;-64.282;2022-11-20T04:46:40;16.00;99.90
59973;DHT22;55298;-36.624;-64.282;2022-11-20T04:49:08;16.10;99.90
59973;DHT22;55298;-36.624;-64.282;2022-11-20T04:51:36;16.30;99.90
59973;DHT22;55298;-36.624;-64.282;2022-11-20T04:54:03;16.40;99.90
59973;DHT22;55298;-36.624;-64.282;2022-11-20T04:56:31;16.50;99.90
59973;DHT22;55298;-36.624;-64.282;2022-11-20T04:59:02;16.50;99.90
59973;DHT22;55298;-36.624;-64.282;2022-11-20T05:01:29;16.60;99.90
59973;DHT22;55298;-36.624;-64.282;2022-11-20T05:03:59;16.70;99.90
59973;DHT22;55298;-36.624;-64.282;2022-11-20T05:06:27;16.70;99.90
59973;DHT22;55298;-36.624;-64.282;2022-11-20T05:08:56;16.80;99.90
59973;DHT22;55298;-36.624;-64.282;2022-11-20T05:11:23;16.80;99.90
59973;DHT22;55298;-36.624;-64.282;2022-11-20T05:13:57;16.80;99.90
59973;DHT22;55298;-36.624;-64.282;2022-11-20T05:16:26;16.80;99.90
59973;DHT22;55298;-36.624;-64.282;2022-11-20T05:18:55;16.70;99.90
59973;DHT22;55298;-36.624;-64.282;2022-11-20T05:21:25;16.80;99.90
59973;DHT22;55298;-36.624;-64.282;2022-11-20T05:23:52;16.80;99.90
59973;DHT22;55298;-36.624;-64.282;2022-11-20T05:26:22;16.80;99.90
59973;DHT22;55298;-36.624;-64.282;2022-11-20T05:28:50;16.90;99.90
59973;DHT22;55298;-36.624;-64.282;2022-11-20T05:31:22;16.90;99.90
59973;DHT22;55298;-36.624;-64.282;2022-11-20T05:33:51;16.90;99.90
59973;DHT22;55298;-36.624;-64.282;2022-11-20T05:36:18;16.90;99.90
59973;DHT22;55298;-36.624;-64.282;2022-11-20T05:38:47;16.90;99.90
59973;DHT22;55298;-36.624;-64.282;2022-11-20T05:41:17;16.90;99.90
59973;DHT22;55298;-36.624;-64.282;2022-11-20T05:43:47;16.80;99.90
59973;DHT22;55298;-36.624;-64.282;2022-11-20T05:46:16;16.90;99.90
59973;DHT22;55298;-36.624;-64.282;2022-11-20T05:48:47;16.90;99.90
59973;DHT22;55298;-36.624;-64.282;2022-11-20T05:51:16;16.90;99.90
59973;DHT22;55298;-36.624;-64.282;2022-11-20T05:53:45;16.80;99.90
59973;DHT22;55298;-36.624;-64.282;2022-11-20T05:56:17;16.80;99.90
59973;DHT22;55298;-36.624;-64.282;2022-11-20T05:58:47;16.70;99.90
59973;DHT22;55298;-36.624;-64.282;2022-11-20T06:01:24;16.60;99.90
59973;DHT22;55298;-36.624;-64.282;2022-11-20T06:03:53;16.30;99.90
59973;DHT22;55298;-36.624;-64.282;2022-11-20T06:06:21;16.10;99.90
59973;DHT22;55298;-36.624;-64.282;2022-11-20T06:08:49;16.00;99.90
59973;DHT22;55298;-36.624;-64.282;2022-11-20T06:11:17;15.90;99.90
59973;DHT22;55298;-36.624;-64.282;2022-11-20T06:13:45;15.80;99.90
59973;DHT22;55298;-36.624;-64.282;2022-11-20T06:16:15;15.70;99.90
59973;DHT22;55298;-36.624;-64.282;2022-11-20T06:18:45;15.60;99.90
59973;DHT22;55298;-36.624;-64.282;2022-11-20T06:21:16;15.50;99.90
59973;DHT22;55298;-36.624;-64.282;2022-11-20T06:23:44;15.40;99.90
59973;DHT22;55298;-36.624;-64.282;2022-11-20T06:26:19;15.30;99.90
59973;DHT22;55298;-36.624;-64.282;2022-11-20T06:28:48;15.20;99.90
59973;DHT22;55298;-36.624;-64.282;2022-11-20T06:31:17;15.10;99.90
59973;DHT22;55298;-36.624;-64.282;2022-11-20T06:33:45;15.20;99.90
59973;DHT22;55298;-36.624;-64.282;2022-11-20T06:36:16;15.20;99.90
59973;DHT22;55298;-36.624;-64.282;2022-11-20T06:38:46;15.20;99.90
59973;DHT22;55298;-36.624;-64.282;2022-11-20T06:41:16;15.30;99.90
59973;DHT22;55298;-36.624;-64.282;2022-11-20T06:43:44;15.30;99.90
59973;DHT22;55298;-36.624;-64.282;2022-11-20T06:46:13;15.40;99.90
59973;DHT22;55298;-36.624;-64.282;2022-11-20T06:48:44;15.40;99.90
59973;DHT22;55298;-36.624;-64.282;2022-11-20T06:51:12;15.50;99.90
59973;DHT22;55298;-36.624;-64.282;2022-11-20T06:53:41;15.50;99.90
59973;DHT22;55298;-36.624;-64.282;2022-11-20T06:56:09;15.60;99.90
59973;DHT22;55298;-36.624;-64.282;2022-11-20T06:58:36;15.60;99.90
59973;DHT22;55298;-36.624;-64.282;2022-11-20T07:01:06;15.70;99.90
59973;DHT22;55298;-36.624;-64.282;2022-11-20T07:03:37;15.70;99.90
59973;DHT22;55298;-36.624;-64.282;2022-11-20T07:06:06;15.80;99.90
59973;DHT22;55298;-36.624;-64.282;2022-11-20T07:08:34;15.70;99.90
59973;DHT22;55298;-36.624;-64.282;2022-11-20T07:11:04;15.70;99.90
59973;DHT22;55298;-36.624;-64.282;2022-11-20T07:13:34;15.70;99.90
59973;DHT22;55298;-36.624;-64.282;2022-11-20T07:16:04;15.60;99.90
59973;DHT22;55298;-36.624;-64.282;2022-11-20T07:18:33;15.60;99.90
59973;DHT22;55298;-36.624;-64.282;2022-11-20T07:21:07;15.50;99.90
59973;DHT22;55298;-36.624;-64.282;2022-11-20T07:23:35;15.70;99.90
59973;DHT22;55298;-36.624;-64.282;2022-11-20T07:26:05;15.60;99.90
59973;DHT22;55298;-36.624;-64.282;2022-11-20T07:28:34;15.60;99.90
59973;DHT22;55298;-36.624;-64.282;2022-11-20T07:31:03;15.60;99.90
59973;DHT22;55298;-36.624;-64.282;2022-11-20T07:33:31;15.50;99.90
59973;DHT22;55298;-36.624;-64.282;2022-11-20T07:36:00;15.50;99.90
59973;DHT22;55298;-36.624;-64.282;2022-11-20T07:38:28;15.40;99.90
59973;DHT22;55298;-36.624;-64.282;2022-11-20T07:40:58;15.40;99.90
59973;DHT22;55298;-36.624;-64.282;2022-11-20T07:43:27;15.50;99.90
59973;DHT22;55298;-36.624;-64.282;2022-11-20T07:45:57;15.40;99.90
59973;DHT22;55298;-36.624;-64.282;2022-11-20T07:48:26;15.50;99.90
59973;DHT22;55298;-36.624;-64.282;2022-11-20T07:50:54;15.50;99.90
59973;DHT22;55298;-36.624;-64.282;2022-11-20T07:53:23;15.40;99.90
59973;DHT22;55298;-36.624;-64.282;2022-11-20T07:55:50;15.40;99.90
59973;DHT22;55298;-36.624;-64.282;2022-11-20T07:58:19;15.40;99.90
59973;DHT22;55298;-36.624;-64.282;2022-11-20T08:00:47;15.40;99.90
59973;DHT22;55298;-36.624;-64.282;2022-11-20T08:03:16;15.30;99.90
59973;DHT22;55298;-36.624;-64.282;2022-11-20T08:05:44;15.30;99.90
59973;DHT22;55298;-36.624;-64.282;2022-11-20T08:08:11;15.30;99.90
59973;DHT22;55298;-36.624;-64.282;2022-11-20T08:10:39;15.30;99.90
59973;DHT22;55298;-36.624;-64.282;2022-11-20T08:13:09;15.40;99.90
59973;DHT22;55298;-36.624;-64.282;2022-11-20T08:16:00;15.40;99.90
59973;DHT22;55298;-36.624;-64.282;2022-11-20T08:18:28;15.30;99.90
59973;DHT22;55298;-36.624;-64.282;2022-11-20T08:20:55;15.40;99.90
59973;DHT22;55298;-36.624;-64.282;2022-11-20T08:23:24;15.40;99.90
59973;DHT22;55298;-36.624;-64.282;2022-11-20T08:25:52;15.40;99.90
59973;DHT22;55298;-36.624;-64.282;2022-11-20T08:28:20;15.30;99.90
59973;DHT22;55298;-36.624;-64.282;2022-11-20T08:30:49;15.40;99.90
59973;DHT22;55298;-36.624;-64.282;2022-11-20T08:33:16;15.40;99.90
59973;DHT22;55298;-36.624;-64.282;2022-11-20T08:35:44;15.30;99.90
59973;DHT22;55298;-36.624;-64.282;2022-11-20T08:38:11;15.30;99.90
59973;DHT22;55298;-36.624;-64.282;2022-11-20T08:40:40;15.30;99.90
59973;DHT22;55298;-36.624;-64.282;2022-11-20T08:43:07;15.30;99.90
59973;DHT22;55298;-36.624;-64.282;2022-11-20T08:45:36;15.20;99.90
59973;DHT22;55298;-36.624;-64.282;2022-11-20T08:48:04;15.30;99.90
59973;DHT22;55298;-36.624;-64.282;2022-11-20T08:50:32;15.20;99.90
59973;DHT22;55298;-36.624;-64.282;2022-11-20T08:53:04;15.20;99.90
59973;DHT22;55298;-36.624;-64.282;2022-11-20T08:55:35;15.20;99.90
59973;DHT22;55298;-36.624;-64.282;2022-11-20T08:58:06;15.20;99.90
59973;DHT22;55298;-36.624;-64.282;2022-11-20T09:00:35;15.20;99.90
59973;DHT22;55298;-36.624;-64.282;2022-11-20T09:03:02;15.20;99.90
59973;DHT22;55298;-36.624;-64.282;2022-11-20T09:05:31;15.20;99.90
59973;DHT22;55298;-36.624;-64.282;2022-11-20T09:07:59;15.20;99.90
59973;DHT22;55298;-36.624;-64.282;2022-11-20T09:10:27;15.10;99.90
59973;DHT22;55298;-36.624;-64.282;2022-11-20T09:12:56;15.20;99.90
59973;DHT22;55298;-36.624;-64.282;2022-11-20T09:15:25;15.20;99.90
59973;DHT22;55298;-36.624;-64.282;2022-11-20T09:17:58;15.10;99.90
59973;DHT22;55298;-36.624;-64.282;2022-11-20T09:20:27;15.20;99.90
59973;DHT22;55298;-36.624;-64.282;2022-11-20T09:22:56;15.30;99.90
59973;DHT22;55298;-36.624;-64.282;2022-11-20T09:25:25;15.30;99.90
59973;DHT22;55298;-36.624;-64.282;2022-11-20T09:28:00;15.50;99.90
59973;DHT22;55298;-36.624;-64.282;2022-11-20T09:30:30;15.40;99.90
59973;DHT22;55298;-36.624;-64.282;2022-11-20T09:32:57;15.40;99.90
59973;DHT22;55298;-36.624;-64.282;2022-11-20T09:35:25;15.40;99.90
59973;DHT22;55298;-36.624;-64.282;2022-11-20T09:37:53;15.40;99.90
59973;DHT22;55298;-36.624;-64.282;2022-11-20T09:40:25;15.50;99.90
59973;DHT22;55298;-36.624;-64.282;2022-11-20T09:43:07;15.50;99.90
59973;DHT22;55298;-36.624;-64.282;2022-11-20T09:48:48;15.50;99.90
59973;DHT22;55298;-36.624;-64.282;2022-11-20T09:51:38;15.50;99.90
59973;DHT22;55298;-36.624;-64.282;2022-11-20T09:54:26;15.50;99.90
59973;DHT22;55298;-36.624;-64.282;2022-11-20T09:57:01;15.50;99.90
59973;DHT22;55298;-36.624;-64.282;2022-11-20T09:59:42;15.60;99.90
59973;DHT22;55298;-36.624;-64.282;2022-11-20T10:02:30;15.70;99.90
59973;DHT22;55298;-36.624;-64.282;2022-11-20T10:05:17;15.80;99.90
59973;DHT22;55298;-36.624;-64.282;2022-11-20T10:08:08;16.00;99.90
59973;DHT22;55298;-36.624;-64.282;2022-11-20T10:11:05;15.90;99.90
59973;DHT22;55298;-36.624;-64.282;2022-11-20T10:13:50;16.00;99.90
59973;DHT22;55298;-36.624;-64.282;2022-11-20T10:22:34;16.00;99.90
59973;DHT22;55298;-36.624;-64.282;2022-11-20T10:25:24;16.00;99.90
59973;DHT22;55298;-36.624;-64.282;2022-11-20T10:28:15;16.10;99.90
59973;DHT22;55298;-36.624;-64.282;2022-11-20T10:30:45;16.20;99.90
59973;DHT22;55298;-36.624;-64.282;2022-11-20T10:33:23;16.40;99.90
59973;DHT22;55298;-36.624;-64.282;2022-11-20T10:36:08;16.50;99.90
59973;DHT22;55298;-36.624;-64.282;2022-11-20T10:38:46;16.40;99.90
59973;DHT22;55298;-36.624;-64.282;2022-11-20T10:41:23;16.50;99.90
59973;DHT22;55298;-36.624;-64.282;2022-11-20T10:44:05;16.50;99.90
59973;DHT22;55298;-36.624;-64.282;2022-11-20T10:46:44;16.70;99.90
59973;DHT22;55298;-36.624;-64.282;2022-11-20T10:49:15;17.50;99.90
59973;DHT22;55298;-36.624;-64.282;2022-11-20T10:52:13;17.70;99.90
59973;DHT22;55298;-36.624;-64.282;2022-11-20T11:00:15;19.30;99.90
59973;DHT22;55298;-36.624;-64.282;2022-11-20T11:02:48;20.30;99.90
59973;DHT22;55298;-36.624;-64.282;2022-11-20T11:07:59;21.70;95.00
59973;DHT22;55298;-36.624;-64.282;2022-11-20T11:10:41;22.20;92.70
59973;DHT22;55298;-36.624;-64.282;2022-11-20T11:13:23;22.60;91.10
59973;DHT22;55298;-36.624;-64.282;2022-11-20T11:15:51;23.30;88.60
59973;DHT22;55298;-36.624;-64.282;2022-11-20T11:18:33;23.80;84.90
59973;DHT22;55298;-36.624;-64.282;2022-11-20T11:21:05;24.10;78.90
59973;DHT22;55298;-36.624;-64.282;2022-11-20T11:23:39;23.50;78.60
59973;DHT22;55298;-36.624;-64.282;2022-11-20T11:26:20;22.00;85.30
59973;DHT22;55298;-36.624;-64.282;2022-11-20T11:28:58;20.80;93.50
59973;DHT22;55298;-36.624;-64.282;2022-11-20T11:31:29;19.90;97.70
59973;DHT22;55298;-36.624;-64.282;2022-11-20T11:34:06;19.30;99.90
59973;DHT22;55298;-36.624;-64.282;2022-11-20T11:36:37;18.60;99.90
59973;DHT22;55298;-36.624;-64.282;2022-11-20T11:39:11;18.40;99.90
59973;DHT22;55298;-36.624;-64.282;2022-11-20T11:41:41;18.10;99.90
59973;DHT22;55298;-36.624;-64.282;2022-11-20T11:44:30;17.80;99.90
59973;DHT22;55298;-36.624;-64.282;2022-11-20T11:47:21;17.50;99.90
59973;DHT22;55298;-36.624;-64.282;2022-11-20T11:50:00;17.10;99.90
59973;DHT22;55298;-36.624;-64.282;2022-11-20T11:52:28;17.20;99.90
59973;DHT22;55298;-36.624;-64.282;2022-11-20T11:55:00;17.10;99.90
59973;DHT22;55298;-36.624;-64.282;2022-11-20T12:00:25;17.30;99.90
59973;DHT22;55298;-36.624;-64.282;2022-11-20T12:06:13;17.60;99.90
59973;DHT22;55298;-36.624;-64.282;2022-11-20T12:09:03;17.60;96.10
59973;DHT22;55298;-36.624;-64.282;2022-11-20T12:11:45;17.50;94.40
59973;DHT22;55298;-36.624;-64.282;2022-11-20T12:16:58;17.60;94.70
59973;DHT22;55298;-36.624;-64.282;2022-11-20T12:19:30;17.50;92.10
59973;DHT22;55298;-36.624;-64.282;2022-11-20T12:22:17;17.60;92.20
59973;DHT22;55298;-36.624;-64.282;2022-11-20T12:27:48;18.60;89.20
59973;DHT22;55298;-36.624;-64.282;2022-11-20T12:30:20;18.70;81.60
59973;DHT22;55298;-36.624;-64.282;2022-11-20T12:33:20;19.00;80.60
59973;DHT22;55298;-36.624;-64.282;2022-11-20T12:36:12;19.00;77.10
59973;DHT22;55298;-36.624;-64.282;2022-11-20T12:39:26;19.10;76.00
59973;DHT22;55298;-36.624;-64.282;2022-11-20T12:42:13;19.20;74.80
59973;DHT22;55298;-36.624;-64.282;2022-11-20T12:48:00;18.90;75.90
59973;DHT22;55298;-36.624;-64.282;2022-11-20T13:02:11;18.90;74.70
59973;DHT22;55298;-36.624;-64.282;2022-11-20T13:07:31;19.00;75.10
59973;DHT22;55298;-36.624;-64.282;2022-11-20T13:10:00;18.90;72.80
59973;DHT22;55298;-36.624;-64.282;2022-11-20T13:18:10;19.10;72.30
59973;DHT22;55298;-36.624;-64.282;2022-11-20T13:20:45;19.10;71.60
59973;DHT22;55298;-36.624;-64.282;2022-11-20T13:23:27;19.60;71.60
59973;DHT22;55298;-36.624;-64.282;2022-11-20T13:26:13;20.90;62.90
59973;DHT22;55298;-36.624;-64.282;2022-11-20T13:28:41;21.90;57.30
59973;DHT22;55298;-36.624;-64.282;2022-11-20T13:31:26;22.60;52.40
59973;DHT22;55298;-36.624;-64.282;2022-11-20T13:33:56;23.10;52.00
59973;DHT22;55298;-36.624;-64.282;2022-11-20T13:36:27;23.60;48.90
59973;DHT22;55298;-36.624;-64.282;2022-11-20T13:38:58;24.00;48.40
59973;DHT22;55298;-36.624;-64.282;2022-11-20T13:41:34;24.10;44.20
59973;DHT22;55298;-36.624;-64.282;2022-11-20T13:44:39;24.10;44.30
59973;DHT22;55298;-36.624;-64.282;2022-11-20T13:47:17;24.30;45.20
59973;DHT22;55298;-36.624;-64.282;2022-11-20T13:49:46;24.70;43.20
59973;DHT22;55298;-36.624;-64.282;2022-11-20T13:55:23;24.90;39.40
59973;DHT22;55298;-36.624;-64.282;2022-11-20T13:58:24;25.00;40.00
59973;DHT22;55298;-36.624;-64.282;2022-11-20T14:01:16;24.80;40.80
59973;DHT22;55298;-36.624;-64.282;2022-11-20T14:03:44;25.50;40.70
59973;DHT22;55298;-36.624;-64.282;2022-11-20T14:06:28;25.60;37.60
59973;DHT22;55298;-36.624;-64.282;2022-11-20T14:08:58;25.80;37.40
59973;DHT22;55298;-36.624;-64.282;2022-11-20T14:11:28;25.90;36.40
59973;DHT22;55298;-36.624;-64.282;2022-11-20T14:14:13;26.10;36.00
59973;DHT22;55298;-36.624;-64.282;2022-11-20T14:16:43;26.20;35.40
59973;DHT22;55298;-36.624;-64.282;2022-11-20T14:19:27;25.50;35.50
59973;DHT22;55298;-36.624;-64.282;2022-11-20T14:22:15;24.90;35.30
59973;DHT22;55298;-36.624;-64.282;2022-11-20T14:24:45;24.30;37.70
59973;DHT22;55298;-36.624;-64.282;2022-11-20T14:27:18;24.60;38.60
59973;DHT22;55298;-36.624;-64.282;2022-11-20T14:29:50;24.70;37.10
59973;DHT22;55298;-36.624;-64.282;2022-11-20T14:32:19;24.70;38.00
59973;DHT22;55298;-36.624;-64.282;2022-11-20T14:34:49;23.90;38.30
59973;DHT22;55298;-36.624;-64.282;2022-11-20T14:37:23;24.10;40.70
59973;DHT22;55298;-36.624;-64.282;2022-11-20T14:39:55;24.60;39.00
59973;DHT22;55298;-36.624;-64.282;2022-11-20T14:42:28;24.80;37.20
59973;DHT22;55298;-36.624;-64.282;2022-11-20T14:44:58;24.80;38.50
59973;DHT22;55298;-36.624;-64.282;2022-11-20T14:47:31;25.20;38.60
59973;DHT22;55298;-36.624;-64.282;2022-11-20T14:50:01;25.40;38.50
59973;DHT22;55298;-36.624;-64.282;2022-11-20T14:52:29;25.20;36.90
59973;DHT22;55298;-36.624;-64.282;2022-11-20T14:54:58;25.30;37.30
59973;DHT22;55298;-36.624;-64.282;2022-11-20T14:57:30;24.90;37.00
59973;DHT22;55298;-36.624;-64.282;2022-11-20T15:00:18;24.70;38.30
59973;DHT22;55298;-36.624;-64.282;2022-11-20T15:02:48;24.60;37.40
59973;DHT22;55298;-36.624;-64.282;2022-11-20T15:05:18;24.00;37.80
59973;DHT22;55298;-36.624;-64.282;2022-11-20T15:07:48;24.10;37.90
59973;DHT22;55298;-36.624;-64.282;2022-11-20T15:10:23;23.90;38.50
59973;DHT22;55298;-36.624;-64.282;2022-11-20T15:13:03;24.00;39.40
59973;DHT22;55298;-36.624;-64.282;2022-11-20T15:15:46;23.80;39.40
59973;DHT22;55298;-36.624;-64.282;2022-11-20T15:18:18;23.90;40.50
59973;DHT22;55298;-36.624;-64.282;2022-11-20T15:20:47;24.10;39.40
59973;DHT22;55298;-36.624;-64.282;2022-11-20T15:23:17;24.40;39.40
59973;DHT22;55298;-36.624;-64.282;2022-11-20T15:25:46;24.70;39.30
59973;DHT22;55298;-36.624;-64.282;2022-11-20T15:28:19;24.90;38.40
59973;DHT22;55298;-36.624;-64.282;2022-11-20T15:30:49;24.80;36.90
59973;DHT22;55298;-36.624;-64.282;2022-11-20T15:33:17;24.60;37.50
59973;DHT22;55298;-36.624;-64.282;2022-11-20T15:35:46;24.30;37.70
59973;DHT22;55298;-36.624;-64.282;2022-11-20T15:38:14;23.80;38.90
59973;DHT22;55298;-36.624;-64.282;2022-11-20T15:40:41;23.40;40.20
59973;DHT22;55298;-36.624;-64.282;2022-11-20T15:43:09;23.10;40.80
59973;DHT22;55298;-36.624;-64.282;2022-11-20T15:45:43;23.00;40.40
59973;DHT22;55298;-36.624;-64.282;2022-11-20T15:48:21;23.20;40.50
59973;DHT22;55298;-36.624;-64.282;2022-11-20T15:53:50;23.30;40.50
59973;DHT22;55298;-36.624;-64.282;2022-11-20T15:56:18;23.20;40.30
59973;DHT22;55298;-36.624;-64.282;2022-11-20T15:58:45;23.40;39.80
59973;DHT22;55298;-36.624;-64.282;2022-11-20T16:01:15;23.70;40.10
59973;DHT22;55298;-36.624;-64.282;2022-11-20T16:03:44;23.90;39.70
59973;DHT22;55298;-36.624;-64.282;2022-11-20T16:06:13;24.00;38.60
59973;DHT22;55298;-36.624;-64.282;2022-11-20T16:08:42;23.70;38.40
59973;DHT22;55298;-36.624;-64.282;2022-11-20T16:11:14;23.70;38.40
59973;DHT22;55298;-36.624;-64.282;2022-11-20T16:13:44;23.90;38.90
59973;DHT22;55298;-36.624;-64.282;2022-11-20T16:16:34;23.80;39.10
59973;DHT22;55298;-36.624;-64.282;2022-11-20T16:19:04;23.70;38.80
59973;DHT22;55298;-36.624;-64.282;2022-11-20T16:21:32;23.30;39.20
59973;DHT22;55298;-36.624;-64.282;2022-11-20T16:24:03;23.00;39.70